createdAt,value
2018-09-11T00:00:36.658Z,7.83
2018-09-11T00:03:04.046Z,8.80
2018-09-11T00:05:31.488Z,9.88
2018-09-11T00:07:59.277Z,9.03
2018-09-11T00:10:26.701Z,8.00
2018-09-11T00:12:54.052Z,5.90
2018-09-11T00:15:21.397Z,6.93
2018-09-11T00:17:48.774Z,10.68
2018-09-11T00:20:16.537Z,6.97
2018-09-11T00:22:43.953Z,8.48
2018-09-11T00:25:11.551Z,7.33
2018-09-11T00:27:39.217Z,7.67
2018-09-11T00:30:06.860Z,8.20
2018-09-11T00:32:34.313Z,9.25
2018-09-11T00:35:01.696Z,8.60
2018-09-11T00:37:29.040Z,7.50
2018-09-11T00:39:56.401Z,6.40
2018-09-11T00:42:23.780Z,5.65
2018-09-11T00:44:51.225Z,8.05
2018-09-11T00:47:18.879Z,6.78
2018-09-11T00:49:46.288Z,11.80
2018-09-11T00:52:14.202Z,7.70
2018-09-11T00:54:41.584Z,8.83
2018-09-11T00:57:09.197Z,8.98
2018-09-11T00:59:36.889Z,8.53
2018-09-11T01:02:04.314Z,7.72
2018-09-11T01:04:31.699Z,6.75
2018-09-11T01:06:59.088Z,7.65
2018-09-11T01:09:26.431Z,8.15
2018-09-11T01:11:53.804Z,6.42
2018-09-11T01:14:21.200Z,8.70
2018-09-11T01:16:48.670Z,7.83
2018-09-11T01:19:16.132Z,7.75
2018-09-11T01:21:43.776Z,5.05
2018-09-11T01:24:11.774Z,7.50
2018-09-11T01:26:39.126Z,6.17
2018-09-11T01:29:06.530Z,8.45
2018-09-11T01:31:33.937Z,7.73
2018-09-11T01:34:01.478Z,9.03
2018-09-11T01:36:29.163Z,6.28
2018-09-11T01:38:56.795Z,6.75
2018-09-11T01:42:32.791Z,6.50
2018-09-11T01:45:00.328Z,8.33
2018-09-11T01:47:27.700Z,8.65
2018-09-11T01:49:55.121Z,9.97
2018-09-11T01:52:23.135Z,5.87
2018-09-11T01:54:50.826Z,6.85
2018-09-11T01:57:18.212Z,7.05
2018-09-11T01:59:45.593Z,8.40
2018-09-11T02:02:13.148Z,5.95
2018-09-11T02:04:40.524Z,7.28
2018-09-11T02:07:07.853Z,7.85
2018-09-11T02:09:35.614Z,7.30
2018-09-11T02:12:02.908Z,5.15
2018-09-11T02:14:30.216Z,7.58
2018-09-11T02:16:57.848Z,9.67
2018-09-11T02:19:25.780Z,9.75
2018-09-11T02:21:53.384Z,9.78
2018-09-11T02:24:21.001Z,7.35
2018-09-11T02:26:48.492Z,7.92
2018-09-11T02:29:15.852Z,6.42
2018-09-11T02:31:43.258Z,4.17
2018-09-11T02:34:11.104Z,7.70
2018-09-11T02:36:38.400Z,6.80
2018-09-11T02:39:07.496Z,6.58
2018-09-11T02:41:34.868Z,8.98
2018-09-11T02:44:02.282Z,7.07
2018-09-11T02:46:29.958Z,11.00
2018-09-11T02:48:57.386Z,8.60
2018-09-11T02:51:25.092Z,7.62
2018-09-11T02:53:52.446Z,9.05
2018-09-11T02:56:20.106Z,8.30
2018-09-11T02:58:47.841Z,10.38
2018-09-11T03:01:15.350Z,9.03
2018-09-11T03:03:42.748Z,7.92
2018-09-11T03:06:10.226Z,9.05
2018-09-11T03:08:37.590Z,8.37
2018-09-11T03:11:04.926Z,11.15
2018-09-11T03:13:32.562Z,12.63
2018-09-11T03:15:59.896Z,10.90
2018-09-11T03:18:27.867Z,10.23
2018-09-11T03:20:55.219Z,10.03
2018-09-11T03:23:22.832Z,10.72
2018-09-11T03:25:50.156Z,12.00
2018-09-11T03:28:17.456Z,13.70
2018-09-11T03:30:45.181Z,9.35
2018-09-11T03:33:13.292Z,11.95
2018-09-11T03:35:40.848Z,12.65
2018-09-11T03:38:08.482Z,11.33
2018-09-11T03:40:36.201Z,13.30
2018-09-11T03:43:03.608Z,11.18
2018-09-11T03:45:31.032Z,11.20
2018-09-11T03:47:58.726Z,11.18
2018-09-11T03:50:26.278Z,9.80
2018-09-11T03:52:53.741Z,11.70
2018-09-11T03:55:21.440Z,11.00
2018-09-11T03:57:48.846Z,12.82
2018-09-11T04:00:16.516Z,13.57
2018-09-11T04:02:43.822Z,13.10
2018-09-11T04:05:11.209Z,15.40
2018-09-11T04:07:38.938Z,15.97
2018-09-11T04:10:06.554Z,12.07
2018-09-11T04:12:33.945Z,13.33
2018-09-11T04:15:01.327Z,15.50
2018-09-11T04:17:36.936Z,14.15
2018-09-11T04:20:04.359Z,14.17
2018-09-11T04:22:31.833Z,14.63
2018-09-11T04:24:59.513Z,13.25
2018-09-11T04:27:26.894Z,14.23
2018-09-11T04:29:55.108Z,14.20
2018-09-11T04:32:22.737Z,13.78
2018-09-11T04:34:50.110Z,15.83
2018-09-11T04:37:17.812Z,17.20
2018-09-11T04:39:45.187Z,29.20
2018-09-11T04:42:12.769Z,18.87
2018-09-11T04:44:40.324Z,19.92
2018-09-11T04:47:07.664Z,23.18
2018-09-11T04:49:35.629Z,19.62
2018-09-11T04:52:03.037Z,15.20
2018-09-11T04:54:30.673Z,15.72
2018-09-11T04:56:58.105Z,19.30
2018-09-11T04:59:25.806Z,16.62
2018-09-11T05:01:53.445Z,15.90
2018-09-11T05:04:21.316Z,15.53
2018-09-11T05:06:48.717Z,17.23
2018-09-11T05:09:16.105Z,18.42
2018-09-11T05:11:43.881Z,17.85
2018-09-11T05:14:11.270Z,16.82
2018-09-11T05:16:38.904Z,19.35
2018-09-11T05:19:06.585Z,18.37
2018-09-11T05:21:34.544Z,13.85
2018-09-11T05:24:02.204Z,14.53
2018-09-11T05:26:29.848Z,16.87
2018-09-11T05:28:58.040Z,17.77
2018-09-11T05:31:25.709Z,16.95
2018-09-11T05:33:53.121Z,17.70
2018-09-11T05:36:20.830Z,16.10
2018-09-11T05:38:48.529Z,17.67
2018-09-11T05:41:15.905Z,16.65
2018-09-11T05:43:43.588Z,14.90
2018-09-11T05:46:11.275Z,14.83
2018-09-11T05:48:38.676Z,15.20
2018-09-11T05:51:06.426Z,14.68
2018-09-11T05:53:33.846Z,18.37
2018-09-11T05:56:01.163Z,14.70
2018-09-11T05:58:28.538Z,17.90
2018-09-11T06:00:56.225Z,19.17
2018-09-11T06:03:23.596Z,16.70
2018-09-11T06:05:50.960Z,17.02
2018-09-11T06:08:18.310Z,13.95
2018-09-11T06:10:45.725Z,17.17
2018-09-11T06:13:13.460Z,18.12
2018-09-11T06:15:41.393Z,15.35
2018-09-11T06:18:08.697Z,19.07
2018-09-11T06:20:36.273Z,17.15
2018-09-11T06:23:03.589Z,21.00
2018-09-11T06:25:31.212Z,16.97
2018-09-11T06:27:58.556Z,19.65
2018-09-11T06:30:25.970Z,14.65
2018-09-11T06:32:53.335Z,16.20
2018-09-11T06:35:20.751Z,12.30
2018-09-11T06:37:48.330Z,13.05
2018-09-11T06:40:15.686Z,15.95
2018-09-11T06:42:43.136Z,11.80
2018-09-11T06:45:10.545Z,13.40
2018-09-11T06:47:39.146Z,16.00
2018-09-11T06:50:06.969Z,13.62
2018-09-11T06:52:34.620Z,13.38
2018-09-11T06:55:02.005Z,13.25
2018-09-11T06:57:29.627Z,12.78
2018-09-11T06:59:57.230Z,13.27
2018-09-11T07:02:24.821Z,15.72
2018-09-11T07:04:52.330Z,13.20
2018-09-11T07:07:19.741Z,13.50
2018-09-11T07:09:47.167Z,17.37
2018-09-11T07:12:14.567Z,13.13
2018-09-11T07:14:42.039Z,12.65
2018-09-11T07:17:09.466Z,10.98
2018-09-11T07:19:36.844Z,13.00
2018-09-11T07:22:04.533Z,13.20
2018-09-11T07:24:31.964Z,13.35
2018-09-11T07:27:00.286Z,14.10
2018-09-11T07:29:27.716Z,13.30
2018-09-11T07:31:56.086Z,13.58
2018-09-11T07:34:23.680Z,15.40
2018-09-11T07:36:52.001Z,14.17
2018-09-11T07:39:20.084Z,10.48
2018-09-11T07:41:49.060Z,14.15
2018-09-11T07:44:16.521Z,15.20
2018-09-11T07:46:48.954Z,13.00
2018-09-11T07:49:18.032Z,11.93
2018-09-11T07:51:46.917Z,12.23
2018-09-11T07:54:14.536Z,11.38
2018-09-11T07:56:43.123Z,12.47
2018-09-11T07:59:10.493Z,13.13
2018-09-11T08:01:39.271Z,11.73
2018-09-11T08:04:07.252Z,16.07
2018-09-11T08:06:34.629Z,12.63
2018-09-11T08:09:03.105Z,14.63
2018-09-11T08:11:30.516Z,14.87
2018-09-11T08:13:58.089Z,13.60
2018-09-11T08:16:26.187Z,10.70
2018-09-11T08:18:53.532Z,10.33
2018-09-11T08:21:21.175Z,9.73
2018-09-11T08:23:48.504Z,10.00
2018-09-11T08:26:16.126Z,10.98
2018-09-11T08:28:44.077Z,12.98
2018-09-11T08:31:11.833Z,13.60
2018-09-11T08:33:39.258Z,13.43
2018-09-11T08:36:06.659Z,14.20
2018-09-11T08:38:34.065Z,13.28
2018-09-11T08:41:01.718Z,9.50
2018-09-11T08:43:29.109Z,10.75
2018-09-11T08:45:58.564Z,10.87
2018-09-11T08:48:25.981Z,10.45
2018-09-11T08:50:54.177Z,19.52
2018-09-11T08:53:22.563Z,11.55
2018-09-11T08:55:49.972Z,15.60
2018-09-11T08:58:17.422Z,9.70
2018-09-11T09:00:45.418Z,14.15
2018-09-11T09:03:12.813Z,12.90
2018-09-11T09:05:40.199Z,10.80
2018-09-11T09:08:07.532Z,16.12
2018-09-11T09:10:41.555Z,15.83
2018-09-11T09:13:08.922Z,10.60
2018-09-11T09:15:36.325Z,10.85
2018-09-11T09:18:04.098Z,8.80
2018-09-11T09:20:31.598Z,11.85
2018-09-11T09:22:59.434Z,12.45
2018-09-11T09:25:27.098Z,12.50
2018-09-11T09:27:54.505Z,11.73
2018-09-11T09:30:22.182Z,11.60
2018-09-11T09:32:49.538Z,11.50
2018-09-11T09:35:16.909Z,14.07
2018-09-11T09:37:44.271Z,11.53
2018-09-11T09:40:11.911Z,16.23
2018-09-11T09:42:39.878Z,10.53
2018-09-11T09:45:08.072Z,10.08
2018-09-11T09:47:35.569Z,9.68
2018-09-11T09:50:02.945Z,9.48
2018-09-11T09:52:30.384Z,10.32
2018-09-11T09:54:57.746Z,7.95
2018-09-11T09:57:25.144Z,9.93
2018-09-11T09:59:52.539Z,10.17
2018-09-11T10:02:22.224Z,12.75
2018-09-11T10:04:50.592Z,11.88
2018-09-11T10:07:18.149Z,13.78
2018-09-11T10:09:45.596Z,15.23
2018-09-11T10:12:12.904Z,12.70
2018-09-11T10:14:40.363Z,12.15
2018-09-11T10:17:08.419Z,15.08
2018-09-11T10:19:35.736Z,9.63
2018-09-11T10:22:03.809Z,8.13
2018-09-11T10:24:31.657Z,11.48
2018-09-11T10:26:59.443Z,13.15
2018-09-11T10:29:26.912Z,13.80
2018-09-11T10:31:54.618Z,7.80
2018-09-11T10:34:23.142Z,10.70
2018-09-11T10:36:50.589Z,8.28
2018-09-11T10:39:18.118Z,12.93
2018-09-11T10:41:45.825Z,9.30
2018-09-11T10:44:13.213Z,14.20
2018-09-11T10:46:40.901Z,13.03
2018-09-11T10:49:08.913Z,11.48
2018-09-11T10:51:36.324Z,8.60
2018-09-11T10:54:03.705Z,11.30
2018-09-11T10:56:31.089Z,11.00
2018-09-11T10:58:58.718Z,10.40
2018-09-11T11:01:26.340Z,7.10
2018-09-11T11:03:53.816Z,8.60
2018-09-11T11:06:21.505Z,17.10
2018-09-11T11:08:49.751Z,15.72
2018-09-11T11:11:17.108Z,10.40
2018-09-11T11:13:44.437Z,12.43
2018-09-11T11:16:12.057Z,5.83
2018-09-11T11:18:39.737Z,7.43
2018-09-11T11:21:07.916Z,9.65
2018-09-11T11:23:35.456Z,7.10
2018-09-11T11:26:02.756Z,8.68
2018-09-11T11:28:30.085Z,13.08
2018-09-11T11:30:57.485Z,12.15
2018-09-11T11:33:24.847Z,10.68
2018-09-11T11:35:52.582Z,10.73
2018-09-11T11:38:19.992Z,8.90
2018-09-11T11:40:47.552Z,8.35
2018-09-11T11:43:15.927Z,6.20
2018-09-11T11:45:43.516Z,7.97
2018-09-11T11:48:10.882Z,10.05
2018-09-11T11:50:39.662Z,11.57
2018-09-11T11:53:07.326Z,5.65
2018-09-11T11:55:34.778Z,6.70
2018-09-11T11:58:03.139Z,6.40
2018-09-11T12:00:30.550Z,10.23
2018-09-11T12:02:57.868Z,6.53
2018-09-11T12:05:25.241Z,10.25
2018-09-11T12:07:52.658Z,9.78
2018-09-11T12:10:20.497Z,8.97
2018-09-11T12:12:47.900Z,13.55
2018-09-11T12:15:15.265Z,7.75
2018-09-11T12:17:43.087Z,11.90
2018-09-11T12:20:10.512Z,14.03
2018-09-11T12:22:37.877Z,8.60
2018-09-11T12:25:05.381Z,9.23
2018-09-11T12:27:32.800Z,9.00
2018-09-11T12:30:00.125Z,10.90
2018-09-11T12:32:27.561Z,10.63
2018-09-11T12:34:55.651Z,6.78
2018-09-11T12:37:23.037Z,14.40
2018-09-11T12:39:50.471Z,7.42
2018-09-11T12:42:17.804Z,13.20
2018-09-11T12:44:45.164Z,9.90
2018-09-11T12:47:13.141Z,12.18
2018-09-11T12:49:41.396Z,6.33
2018-09-11T12:52:09.797Z,9.85
2018-09-11T12:54:37.215Z,9.33
2018-09-11T12:57:05.077Z,7.87
2018-09-11T12:59:32.469Z,8.67
2018-09-11T13:02:00.142Z,13.03
2018-09-11T13:04:28.131Z,11.57
2018-09-11T13:06:55.508Z,8.23
2018-09-11T13:09:22.931Z,12.85
2018-09-11T13:11:50.727Z,10.10
2018-09-11T13:14:18.117Z,10.90
2018-09-11T13:16:45.836Z,9.17
2018-09-11T13:19:13.179Z,13.60
2018-09-11T13:21:41.313Z,7.55
2018-09-11T13:24:09.518Z,7.50
2018-09-11T13:26:37.138Z,9.30
2018-09-11T13:29:04.885Z,9.98
2018-09-11T13:31:32.176Z,10.27
2018-09-11T13:33:59.917Z,8.35
2018-09-11T13:36:27.670Z,11.60
2018-09-11T13:38:55.269Z,7.70
2018-09-11T13:41:22.700Z,9.33
2018-09-11T13:43:50.707Z,9.20
2018-09-11T13:46:18.054Z,8.25
2018-09-11T13:48:45.961Z,8.00
2018-09-11T13:51:13.404Z,15.03
2018-09-11T13:53:41.037Z,10.85
2018-09-11T13:56:08.474Z,7.33
2018-09-11T13:58:36.023Z,8.75
2018-09-11T14:01:04.030Z,10.27
2018-09-11T14:03:32.730Z,9.95
2018-09-11T14:06:00.372Z,12.18
2018-09-11T14:08:27.806Z,14.45
2018-09-11T14:10:55.818Z,24.00
2018-09-11T14:13:23.227Z,12.53
2018-09-11T14:15:51.427Z,14.07
2018-09-11T14:18:19.305Z,17.75
2018-09-11T14:20:46.711Z,29.43
2018-09-11T14:23:14.106Z,15.03
2018-09-11T14:25:41.494Z,10.45
2018-09-11T14:28:09.130Z,11.38
2018-09-11T14:30:36.986Z,10.90
2018-09-11T14:33:04.621Z,9.75
2018-09-11T14:35:32.617Z,14.85
2018-09-11T14:38:00.292Z,7.10
2018-09-11T14:40:27.710Z,7.83
2018-09-11T14:42:55.167Z,5.77
2018-09-11T14:45:22.630Z,10.60
2018-09-11T14:47:50.736Z,6.95
2018-09-11T14:50:18.102Z,7.90
2018-09-11T14:52:45.513Z,10.50
2018-09-11T14:55:12.942Z,12.03
2018-09-11T14:57:40.790Z,10.70
2018-09-11T15:00:08.546Z,8.13
2018-09-11T15:02:36.032Z,11.80
2018-09-11T15:05:03.372Z,8.93
2018-09-11T15:07:31.038Z,9.95
2018-09-11T15:09:58.562Z,9.10
2018-09-11T15:12:26.171Z,11.75
2018-09-11T15:14:53.814Z,10.75
2018-09-11T15:17:21.183Z,9.10
2018-09-11T15:19:48.571Z,7.65
2018-09-11T15:22:15.888Z,12.05
2018-09-11T15:24:43.235Z,11.25
2018-09-11T15:27:10.742Z,5.47
2018-09-11T15:29:38.329Z,8.40
2018-09-11T15:32:05.749Z,9.17
2018-09-11T15:34:33.429Z,7.97
2018-09-11T15:37:01.050Z,8.83
2018-09-11T15:39:28.914Z,11.37
2018-09-11T15:41:57.521Z,5.53
2018-09-11T15:44:25.208Z,6.70
2018-09-11T15:46:52.675Z,10.63
2018-09-11T15:49:20.245Z,7.97
2018-09-11T15:51:47.710Z,7.92
2018-09-11T15:54:15.744Z,7.60
2018-09-11T15:56:43.453Z,7.78
2018-09-11T15:59:10.834Z,9.23
2018-09-11T16:01:38.148Z,10.45
2018-09-11T16:04:05.566Z,7.72
2018-09-11T16:06:33.233Z,8.13
2018-09-11T16:09:00.642Z,6.30
2018-09-11T16:11:28.017Z,9.77
2018-09-11T16:13:55.418Z,7.83
2018-09-11T16:16:22.764Z,6.80
2018-09-11T16:18:50.061Z,7.47
2018-09-11T16:21:18.348Z,6.72
2018-09-11T16:23:46.414Z,5.75
2018-09-11T16:26:14.377Z,13.48
2018-09-11T16:28:42.573Z,9.70
2018-09-11T16:31:10.113Z,5.73
2018-09-11T16:33:38.192Z,6.60
2018-09-11T16:36:05.574Z,11.38
2018-09-11T16:38:33.577Z,7.90
2018-09-11T16:41:00.919Z,11.70
2018-09-11T16:43:28.520Z,7.37
2018-09-11T16:45:56.181Z,10.98
2018-09-11T16:48:23.983Z,10.00
2018-09-11T16:50:52.334Z,8.60
2018-09-11T16:53:19.752Z,10.40
2018-09-11T16:55:47.658Z,8.70
2018-09-11T16:58:15.323Z,6.65
2018-09-11T17:00:43.549Z,7.17
2018-09-11T17:03:11.573Z,10.03
2018-09-11T17:05:38.905Z,8.73
2018-09-11T17:08:06.420Z,15.40
2018-09-11T17:10:35.119Z,13.70
2018-09-11T17:13:03.235Z,10.05
2018-09-11T17:15:30.651Z,9.53
2018-09-11T17:17:57.965Z,8.70
2018-09-11T17:20:25.338Z,10.03
2018-09-11T17:22:52.736Z,14.50
2018-09-11T17:25:20.421Z,11.40
2018-09-11T17:27:47.762Z,12.30
2018-09-11T17:30:15.744Z,14.35
2018-09-11T17:32:43.146Z,14.45
2018-09-11T17:35:11.173Z,12.00
2018-09-11T17:37:38.477Z,13.85
2018-09-11T17:40:05.934Z,12.53
2018-09-11T17:42:33.601Z,12.50
2018-09-11T17:45:00.975Z,13.93
2018-09-11T17:47:28.314Z,10.68
2018-09-11T17:49:56.328Z,16.00
2018-09-11T17:52:24.469Z,12.23
2018-09-11T17:54:51.824Z,15.80
2018-09-11T17:57:19.157Z,17.17
2018-09-11T17:59:46.861Z,23.70
2018-09-11T18:02:14.400Z,15.48
2018-09-11T18:04:41.785Z,20.20
2018-09-11T18:07:09.092Z,18.05
2018-09-11T18:09:36.649Z,20.95
2018-09-11T18:12:04.597Z,24.20
2018-09-11T18:14:32.192Z,22.85
2018-09-11T18:16:59.709Z,24.57
2018-09-11T18:19:27.279Z,26.87
2018-09-11T18:21:55.489Z,28.20
2018-09-11T18:24:23.422Z,25.90
2018-09-11T18:26:50.999Z,25.27
2018-09-11T18:29:18.473Z,26.23
2018-09-11T18:31:46.084Z,30.10
2018-09-11T18:34:13.568Z,28.90
2018-09-11T18:36:41.417Z,32.03
2018-09-11T18:39:10.485Z,35.85
2018-09-11T18:41:39.408Z,33.88
2018-09-11T18:44:06.976Z,30.40
2018-09-11T18:46:35.109Z,34.45
2018-09-11T18:49:02.842Z,34.25
2018-09-11T18:51:31.307Z,34.00
2018-09-11T18:53:59.052Z,33.35
2018-09-11T18:56:26.781Z,39.05
2018-09-11T18:58:54.921Z,29.85
2018-09-11T19:01:23.244Z,34.43
2018-09-11T19:03:52.195Z,29.25
2018-09-11T19:06:19.886Z,32.65
2018-09-11T19:08:47.393Z,36.28
2018-09-11T19:11:15.453Z,37.00
2018-09-11T19:13:42.973Z,34.63
2018-09-11T19:16:10.832Z,31.57
2018-09-11T19:18:38.541Z,47.20
2018-09-11T19:21:06.452Z,35.40
2018-09-11T19:23:33.979Z,36.37
2018-09-11T19:26:01.887Z,33.73
2018-09-11T19:28:29.468Z,40.40
2018-09-11T19:30:56.945Z,31.12
2018-09-11T19:33:24.408Z,34.90
2018-09-11T19:35:51.851Z,35.10
2018-09-11T19:38:19.321Z,42.62
2018-09-11T19:40:47.007Z,33.50
2018-09-11T19:43:14.561Z,35.03
2018-09-11T19:45:42.109Z,33.67
2018-09-11T19:48:09.588Z,34.25
2018-09-11T19:50:37.225Z,35.23
2018-09-11T19:53:04.745Z,29.80
2018-09-11T19:55:32.265Z,31.20
2018-09-11T19:57:59.950Z,34.03
2018-09-11T20:00:27.536Z,29.02
2018-09-11T20:02:55.052Z,29.57
2018-09-11T20:05:22.635Z,31.37
2018-09-11T20:07:50.322Z,30.15
2018-09-11T20:10:24.394Z,28.15
2018-09-11T20:12:52.349Z,26.57
2018-09-11T20:15:20.000Z,30.55
2018-09-11T20:17:48.014Z,33.15
2018-09-11T20:20:15.737Z,32.90
2018-09-11T20:22:43.302Z,26.60
2018-09-11T20:25:11.081Z,27.13
2018-09-11T20:27:38.767Z,25.47
2018-09-11T20:30:06.291Z,28.87
2018-09-11T20:32:33.993Z,28.83
2018-09-11T20:35:01.674Z,24.35
2018-09-11T20:37:29.470Z,28.85
2018-09-11T20:39:57.010Z,24.18
2018-09-11T20:42:24.810Z,23.12
2018-09-11T20:44:52.669Z,28.05
2018-09-11T20:47:20.125Z,26.37
2018-09-11T20:49:47.565Z,24.65
2018-09-11T20:52:15.049Z,25.52
2018-09-11T20:54:42.804Z,25.02
2018-09-11T20:57:10.396Z,24.95
2018-09-11T20:59:38.589Z,19.48
2018-09-11T21:02:06.417Z,19.25
2018-09-11T21:04:34.027Z,22.15
2018-09-11T21:07:01.660Z,24.37
2018-09-11T21:09:29.302Z,25.67
2018-09-11T21:11:57.216Z,26.50
2018-09-11T21:14:25.471Z,24.92
2018-09-11T21:16:52.997Z,20.30
2018-09-11T21:19:20.488Z,22.75
2018-09-11T21:21:48.072Z,23.75
2018-09-11T21:24:15.550Z,26.85
2018-09-11T21:26:44.193Z,24.30
2018-09-11T21:29:11.718Z,21.90
2018-09-11T21:31:39.192Z,24.37
2018-09-11T21:34:06.871Z,21.77
2018-09-11T21:36:34.352Z,24.13
2018-09-11T21:39:02.457Z,20.37
2018-09-11T21:41:30.036Z,24.03
2018-09-11T21:43:57.663Z,23.32
2018-09-11T21:46:26.490Z,19.10
2018-09-11T21:48:53.962Z,22.65
2018-09-11T21:51:21.443Z,15.93
2018-09-11T21:53:48.991Z,19.17
2018-09-11T21:56:16.649Z,20.85
2018-09-11T21:58:44.135Z,23.22
2018-09-11T22:01:16.991Z,25.10
2018-09-11T22:03:44.603Z,24.20
2018-09-11T22:06:12.286Z,20.77
2018-09-11T22:08:39.725Z,21.40
2018-09-11T22:11:07.187Z,20.25
2018-09-11T22:13:34.820Z,21.05
2018-09-11T22:16:02.280Z,21.07
2018-09-11T22:18:30.691Z,19.73
2018-09-11T22:20:58.884Z,21.43
2018-09-11T22:23:27.080Z,24.03
2018-09-11T22:25:54.562Z,21.53
2018-09-11T22:28:22.876Z,19.82
2018-09-11T22:30:50.527Z,18.65
2018-09-11T22:33:18.951Z,20.72
2018-09-11T22:35:47.332Z,22.20
2018-09-11T22:38:15.292Z,19.50
2018-09-11T22:40:43.700Z,20.93
2018-09-11T22:43:11.755Z,18.77
2018-09-11T22:45:39.509Z,17.83
2018-09-11T22:48:06.927Z,21.70
2018-09-11T22:50:34.537Z,19.65
2018-09-11T22:53:02.173Z,18.27
2018-09-11T22:55:29.889Z,15.00
2018-09-11T22:57:57.316Z,16.67
2018-09-11T23:00:25.017Z,17.62
2018-09-11T23:02:54.392Z,14.83
2018-09-11T23:05:23.596Z,17.97
2018-09-11T23:07:51.973Z,14.27
2018-09-11T23:10:19.594Z,15.43
2018-09-11T23:12:47.917Z,15.32
2018-09-11T23:15:16.031Z,16.93
2018-09-11T23:17:44.201Z,15.43
2018-09-11T23:20:12.711Z,16.93
2018-09-11T23:22:40.690Z,16.85
2018-09-11T23:25:08.551Z,16.75
2018-09-11T23:27:36.726Z,17.60
2018-09-11T23:30:05.917Z,19.85
2018-09-11T23:32:35.240Z,17.00
2018-09-11T23:35:09.295Z,18.05
2018-09-11T23:37:40.675Z,19.40
2018-09-11T23:40:12.377Z,18.02
2018-09-11T23:42:43.335Z,18.57
2018-09-11T23:45:13.219Z,18.30
2018-09-11T23:47:47.764Z,19.65
2018-09-11T23:50:23.062Z,18.75
2018-09-11T23:52:55.519Z,19.27
2018-09-11T23:55:28.209Z,20.33
2018-09-11T23:57:57.863Z,19.30
